Terminal Aerodrome Forecast
Issued by NWS Jackson, KY

Home | Current Version | Previous Version | Text Only | Print | Product List | Glossary On
Versions: 1 2 3 4 5 6 7 8 9 10 11 12 13 14 15 16 17
000
FTUS43 KJKL 211500 AAA
TAFJKL
TAF AMD
KJKL 211518Z 2115/2212 VRB03KT P6SM BKN025 OVC040
     FM211700 25008G18KT P6SM VCSH SCT025 BKN035
     FM212300 29006KT P6SM FEW015 SCT025 SCT250
     FM220700 VRB03KT P6SM OVC015=

USA.gov is the U.S. government's official web portal to all federal, state and local government web resources and services.